createdAt,value
2022-08-22T00:01:23.944Z,23.30
2022-08-22T00:02:46.132Z,26.00
2022-08-22T00:04:14.905Z,23.30
2022-08-22T00:07:06.219Z,23.30
2022-08-22T00:09:47.908Z,23.20
2022-08-22T00:12:35.747Z,23.20
2022-08-22T00:15:42.100Z,23.20
2022-08-22T00:17:57.782Z,23.20
2022-08-22T00:20:43.270Z,23.10
2022-08-22T00:23:24.971Z,23.00
2022-08-22T00:26:17.914Z,23.00
2022-08-22T00:28:54.092Z,22.80
2022-08-22T00:31:32.795Z,22.70
2022-08-22T00:34:24.140Z,22.80
2022-08-22T00:37:04.599Z,22.80
2022-08-22T00:39:37.949Z,22.80
2022-08-22T00:42:31.848Z,23.00
2022-08-22T00:45:12.524Z,23.00
2022-08-22T00:47:54.825Z,23.00
2022-08-22T00:50:47.676Z,22.90
2022-08-22T00:53:23.323Z,23.00
2022-08-22T00:56:13.638Z,22.80
2022-08-22T00:59:23.356Z,22.80
2022-08-22T01:01:39.595Z,22.90
2022-08-22T01:04:21.760Z,22.80
2022-08-22T01:07:24.734Z,22.90
2022-08-22T01:09:59.379Z,22.90
2022-08-22T01:12:41.471Z,22.80
2022-08-22T01:15:14.049Z,22.80
2022-08-22T01:17:53.460Z,22.80
2022-08-22T01:20:30.062Z,22.80
2022-08-22T01:23:27.340Z,22.80
2022-08-22T01:26:25.708Z,22.90
2022-08-22T01:29:32.773Z,22.80
2022-08-22T01:32:14.064Z,22.70
2022-08-22T01:34:59.116Z,22.80
2022-08-22T01:37:43.450Z,22.70
2022-08-22T01:40:30.321Z,22.60
2022-08-22T01:43:17.759Z,22.60
2022-08-22T01:46:08.631Z,22.60
2022-08-22T01:48:47.883Z,22.40
2022-08-22T02:25:55.214Z,22.20
2022-08-22T02:28:33.923Z,22.30
2022-08-22T02:31:16.784Z,22.20
2022-08-22T02:33:53.617Z,22.20
2022-08-22T02:36:35.401Z,22.30
2022-08-22T02:39:08.470Z,22.30
2022-08-22T02:41:53.557Z,22.10
2022-08-22T02:44:29.047Z,22.00
2022-08-22T02:47:14.164Z,22.00
2022-08-22T02:49:56.799Z,22.00
2022-08-22T02:52:29.862Z,22.10
2022-08-22T02:55:03.183Z,22.10
2022-08-22T02:57:48.132Z,22.10
2022-08-22T03:00:31.585Z,22.10
2022-08-22T03:03:01.382Z,22.30
2022-08-22T03:05:40.301Z,22.20
2022-08-22T03:08:24.757Z,22.20
2022-08-22T03:11:27.331Z,22.00
2022-08-22T03:14:17.011Z,22.00
2022-08-22T03:16:53.307Z,21.80
2022-08-22T03:19:52.171Z,21.80
2022-08-22T03:22:28.124Z,21.80
2022-08-22T03:25:17.699Z,21.90
2022-08-22T03:27:53.572Z,22.00
2022-08-22T03:30:44.153Z,22.00
2022-08-22T03:33:23.508Z,22.10
2022-08-22T03:35:56.589Z,21.90
2022-08-22T03:38:32.529Z,21.90
2022-08-22T03:41:24.670Z,21.90
2022-08-22T03:44:25.019Z,22.00
2022-08-22T03:47:16.310Z,21.90
2022-08-22T03:50:01.270Z,21.80
2022-08-22T03:52:44.712Z,21.80
2022-08-22T03:55:23.739Z,21.90
2022-08-22T03:58:27.309Z,22.00
2022-08-22T04:01:21.321Z,22.00
2022-08-22T04:04:13.765Z,22.00
2022-08-22T04:07:28.051Z,22.00
2022-08-22T04:10:04.789Z,21.90
2022-08-22T04:13:07.587Z,21.90
2022-08-22T04:15:43.559Z,21.90
2022-08-22T04:18:22.350Z,21.90
2022-08-22T04:20:59.504Z,21.90
2022-08-22T04:23:47.687Z,22.00
2022-08-22T04:26:36.915Z,22.10
2022-08-22T04:29:18.729Z,22.10
2022-08-22T04:31:57.695Z,22.00
2022-08-22T04:34:33.956Z,22.00
2022-08-22T04:37:10.507Z,22.00
2022-08-22T04:39:55.498Z,21.80
2022-08-22T04:42:33.149Z,21.70
2022-08-22T04:45:21.924Z,21.80
2022-08-22T04:47:58.068Z,21.70
2022-08-22T04:50:43.263Z,21.70
2022-08-22T04:53:28.941Z,21.60
2022-08-22T04:56:18.725Z,21.70
2022-08-22T04:58:52.110Z,21.80
2022-08-22T05:01:39.872Z,21.70
2022-08-22T05:04:13.554Z,21.80
2022-08-22T05:06:47.159Z,21.70
2022-08-22T05:09:21.455Z,21.60
2022-08-22T05:11:54.358Z,21.70
2022-08-22T05:14:24.647Z,21.70
2022-08-22T05:16:57.666Z,21.60
2022-08-22T05:19:32.255Z,21.70
2022-08-22T05:22:05.387Z,21.70
2022-08-22T05:24:38.481Z,21.70
2022-08-22T05:27:20.416Z,21.70
2022-08-22T05:29:54.481Z,21.70
2022-08-22T05:32:30.675Z,21.60
2022-08-22T05:35:03.655Z,21.60
2022-08-22T05:37:42.759Z,21.40
2022-08-22T05:40:15.878Z,21.40
2022-08-22T05:42:46.836Z,21.40
2022-08-22T05:45:20.085Z,21.40
2022-08-22T05:47:56.189Z,21.40
2022-08-22T05:50:50.837Z,21.40
2022-08-22T05:53:33.017Z,21.50
2022-08-22T05:56:06.230Z,21.50
2022-08-22T05:58:47.986Z,21.40
2022-08-22T06:01:33.330Z,21.40
2022-08-22T06:04:21.545Z,21.30
2022-08-22T06:07:00.476Z,21.30
2022-08-22T06:09:35.481Z,21.20
2022-08-22T06:12:21.999Z,21.20
2022-08-22T06:14:57.271Z,21.30
2022-08-22T06:17:30.158Z,21.30
2022-08-22T06:20:00.680Z,21.20
2022-08-22T06:22:33.569Z,21.20
2022-08-22T06:25:06.233Z,21.10
2022-08-22T06:27:37.143Z,21.10
2022-08-22T06:30:09.163Z,21.20
2022-08-22T06:32:59.827Z,21.30
2022-08-22T06:35:36.803Z,21.30
2022-08-22T06:38:06.918Z,21.30
2022-08-22T06:40:37.260Z,21.20
2022-08-22T06:43:07.604Z,21.30
2022-08-22T06:45:37.813Z,21.30
2022-08-22T06:48:11.619Z,21.40
2022-08-22T06:50:44.923Z,21.60
2022-08-22T06:53:31.928Z,21.40
2022-08-22T06:56:06.155Z,21.40
2022-08-22T06:58:44.455Z,21.50
2022-08-22T07:01:17.533Z,21.60
2022-08-22T07:03:53.908Z,21.60
2022-08-22T07:06:41.956Z,21.70
2022-08-22T07:09:27.737Z,21.80
2022-08-22T07:12:00.562Z,21.70
2022-08-22T07:14:31.463Z,21.70
2022-08-22T07:17:04.727Z,21.80
2022-08-22T07:19:40.827Z,21.80
2022-08-22T07:22:20.340Z,22.00
2022-08-22T07:24:53.516Z,22.10
2022-08-22T07:28:03.691Z,22.10
2022-08-22T07:30:45.157Z,22.40
2022-08-22T07:33:27.002Z,22.50
2022-08-22T07:36:04.972Z,22.30
2022-08-22T07:38:42.190Z,22.60
2022-08-22T07:41:24.678Z,22.60
2022-08-22T07:44:03.689Z,22.50
2022-08-22T07:47:00.344Z,22.30
2022-08-22T07:49:38.730Z,22.40
2022-08-22T07:52:14.562Z,22.60
2022-08-22T07:54:58.325Z,22.70
2022-08-22T07:57:37.614Z,23.00
2022-08-22T08:00:11.688Z,23.10
2022-08-22T08:02:50.295Z,23.30
2022-08-22T08:05:24.298Z,24.00
2022-08-22T08:07:57.541Z,24.40
2022-08-22T08:10:33.558Z,24.50
2022-08-22T08:13:09.623Z,24.10
2022-08-22T08:15:42.175Z,24.50
2022-08-22T08:18:19.537Z,24.10
2022-08-22T08:20:55.542Z,23.90
2022-08-22T08:23:27.490Z,24.00
2022-08-22T08:26:16.663Z,24.50
2022-08-22T08:28:52.742Z,24.30
2022-08-22T08:31:39.824Z,24.20
2022-08-22T08:34:16.415Z,23.90
2022-08-22T08:36:58.824Z,23.60
2022-08-22T08:39:43.102Z,23.30
2022-08-22T08:42:24.067Z,23.40
2022-08-22T08:45:09.622Z,23.20
2022-08-22T08:48:16.620Z,23.00
2022-08-22T08:50:52.587Z,22.80
2022-08-22T08:53:33.951Z,22.90
2022-08-22T08:56:25.552Z,23.00
2022-08-22T08:59:24.468Z,23.00
2022-08-22T09:02:23.452Z,22.80
2022-08-22T09:05:13.960Z,22.80
2022-08-22T09:08:11.870Z,22.80
2022-08-22T09:11:09.927Z,22.90
2022-08-22T09:14:00.728Z,23.00
2022-08-22T09:16:37.607Z,22.80
2022-08-22T09:19:35.455Z,22.60
2022-08-22T09:22:24.540Z,22.40
2022-08-22T09:25:00.809Z,22.70
2022-08-22T09:28:04.183Z,22.80
2022-08-22T09:30:46.918Z,23.20
2022-08-22T09:33:21.749Z,23.50
2022-08-22T09:38:39.808Z,23.60
2022-08-22T09:40:15.704Z,23.70
2022-08-22T09:41:30.414Z,23.40
2022-08-22T09:44:40.097Z,23.30
2022-08-22T09:47:14.035Z,23.20
2022-08-22T09:49:54.830Z,23.20
2022-08-22T09:52:34.080Z,23.30
2022-08-22T09:55:16.302Z,23.50
2022-08-22T09:58:17.182Z,23.80
2022-08-22T10:00:55.023Z,23.80
2022-08-22T10:03:28.694Z,24.00
2022-08-22T10:06:09.477Z,24.70
2022-08-22T10:09:04.249Z,25.70
2022-08-22T10:11:38.736Z,26.20
2022-08-22T10:14:22.235Z,26.00
2022-08-22T10:17:21.856Z,25.20
2022-08-22T10:19:54.827Z,24.70
2022-08-22T10:22:45.096Z,24.60
2022-08-22T10:25:41.690Z,24.70
2022-08-22T10:28:36.743Z,24.60
2022-08-22T10:31:35.540Z,24.40
2022-08-22T10:34:13.343Z,24.20
2022-08-22T10:36:52.679Z,24.30
2022-08-22T10:39:25.334Z,24.60
2022-08-22T10:42:35.435Z,25.20
2022-08-22T10:45:35.838Z,25.70
2022-08-22T10:48:01.260Z,26.40
2022-08-22T10:50:46.116Z,26.10
2022-08-22T10:53:32.913Z,26.30
2022-08-22T10:56:08.371Z,26.00
2022-08-22T10:58:41.838Z,26.30
2022-08-22T11:01:37.478Z,26.30
2022-08-22T11:04:00.725Z,25.80
2022-08-22T11:06:45.964Z,25.80
2022-08-22T11:09:22.609Z,27.20
2022-08-22T11:11:58.947Z,26.70
2022-08-22T11:14:55.691Z,26.30
2022-08-22T11:17:54.243Z,25.80
2022-08-22T11:20:21.493Z,25.90
2022-08-22T11:23:04.141Z,26.50
2022-08-22T11:25:53.664Z,26.40
2022-08-22T11:28:37.479Z,27.70
2022-08-22T11:31:28.006Z,27.30
2022-08-22T11:34:03.087Z,27.70
2022-08-22T11:36:56.096Z,27.60
2022-08-22T11:39:32.310Z,26.90
2022-08-22T11:42:14.384Z,27.20
2022-08-22T11:44:59.704Z,27.00
2022-08-22T11:47:35.734Z,27.40
2022-08-22T11:50:26.232Z,27.70
2022-08-22T11:53:07.816Z,28.00
2022-08-22T11:55:40.189Z,29.00
2022-08-22T11:58:29.228Z,29.80
2022-08-22T12:01:06.645Z,29.30
2022-08-22T12:03:45.582Z,30.00
2022-08-22T12:06:34.732Z,29.30
2022-08-22T12:09:24.418Z,29.10
2022-08-22T12:12:04.720Z,28.80
2022-08-22T12:14:49.611Z,28.50
2022-08-22T12:17:55.081Z,28.10
2022-08-22T12:20:35.576Z,27.70
2022-08-22T12:23:20.732Z,27.60
2022-08-22T12:26:10.981Z,27.20
2022-08-22T12:28:50.975Z,27.00
2022-08-22T12:31:37.370Z,26.70
2022-08-22T12:34:16.910Z,26.50
2022-08-22T12:36:59.212Z,26.50
2022-08-22T12:40:07.682Z,26.40
2022-08-22T12:42:51.798Z,26.20
2022-08-22T12:45:31.036Z,26.10
2022-08-22T12:48:20.899Z,26.10
2022-08-22T12:50:55.721Z,26.30
2022-08-22T12:53:34.957Z,26.60
2022-08-22T12:56:23.901Z,27.20
2022-08-22T12:59:09.718Z,28.00
2022-08-22T13:01:47.663Z,27.90
2022-08-22T13:04:33.370Z,28.20
2022-08-22T13:07:10.700Z,28.10
2022-08-22T13:09:43.369Z,28.70
2022-08-22T13:12:22.003Z,29.60
2022-08-22T13:14:55.113Z,29.70
2022-08-22T13:17:27.981Z,29.00
2022-08-22T13:20:04.218Z,28.10
2022-08-22T13:22:37.123Z,27.50
2022-08-22T13:25:25.568Z,26.80
2022-08-22T13:27:52.496Z,26.00
2022-08-22T13:30:37.918Z,25.50
2022-08-22T13:33:20.391Z,25.00
2022-08-22T13:35:53.569Z,24.90
2022-08-22T13:38:49.705Z,24.80
2022-08-22T13:41:31.753Z,25.10
2022-08-22T13:44:10.864Z,25.30
2022-08-22T13:47:10.854Z,25.80
2022-08-22T13:49:18.567Z,26.10
2022-08-22T13:52:28.930Z,26.80
2022-08-22T13:54:55.921Z,27.00
2022-08-22T13:57:37.753Z,27.30
2022-08-22T14:00:12.886Z,27.30
2022-08-22T14:02:53.606Z,27.30
2022-08-22T14:05:38.826Z,27.20
2022-08-22T14:08:26.373Z,27.30
2022-08-22T14:11:16.334Z,27.50
2022-08-22T14:13:50.884Z,27.70
2022-08-22T14:16:28.793Z,27.70
2022-08-22T14:19:05.967Z,27.70
2022-08-22T14:22:02.609Z,27.90
2022-08-22T14:24:45.430Z,27.70
2022-08-22T14:27:11.657Z,27.90
2022-08-22T14:29:50.436Z,27.40
2022-08-22T14:32:26.799Z,27.20
2022-08-22T14:34:59.720Z,26.80
2022-08-22T14:37:34.532Z,26.50
2022-08-22T14:40:12.769Z,26.10
2022-08-22T14:42:49.222Z,26.00
2022-08-22T14:45:36.227Z,25.90
2022-08-22T14:48:29.731Z,25.70
2022-08-22T14:51:00.757Z,25.60
2022-08-22T14:53:35.667Z,25.30
2022-08-22T14:56:11.374Z,25.20
2022-08-22T14:59:02.531Z,24.90
2022-08-22T15:01:37.310Z,24.70
2022-08-22T15:04:10.751Z,24.60
2022-08-22T15:06:47.657Z,24.60
2022-08-22T15:09:44.093Z,24.60
2022-08-22T15:12:35.815Z,24.50
2022-08-22T15:15:10.958Z,24.70
2022-08-22T15:17:50.837Z,25.00
2022-08-22T15:20:49.159Z,25.40
2022-08-22T15:23:25.550Z,25.70
2022-08-22T15:26:13.235Z,25.80
2022-08-22T15:28:52.913Z,25.90
2022-08-22T15:31:20.682Z,25.80
2022-08-22T15:33:52.640Z,26.00
2022-08-22T15:36:26.048Z,26.00
2022-08-22T15:38:59.355Z,26.00
2022-08-22T15:41:39.683Z,26.10
2022-08-22T15:44:32.624Z,26.10
2022-08-22T15:46:54.892Z,26.20
2022-08-22T15:49:29.007Z,26.50
2022-08-22T15:52:05.245Z,26.60
2022-08-22T15:54:46.768Z,26.60
2022-08-22T15:57:16.954Z,26.40
2022-08-22T15:59:56.107Z,26.30
2022-08-22T16:02:37.558Z,26.20
2022-08-22T16:05:17.016Z,26.10
2022-08-22T16:07:53.175Z,26.00
2022-08-22T16:10:29.235Z,26.00
2022-08-22T16:13:17.475Z,26.10
2022-08-22T16:15:56.740Z,26.10
2022-08-22T16:18:40.960Z,26.10
2022-08-22T16:21:29.302Z,26.10
2022-08-22T16:24:03.025Z,26.10
2022-08-22T16:26:43.164Z,26.30
2022-08-22T16:29:18.244Z,26.30
2022-08-22T16:31:55.794Z,26.20
2022-08-22T16:34:29.159Z,26.30
2022-08-22T16:37:11.950Z,26.20
2022-08-22T16:39:45.773Z,26.10
2022-08-22T16:42:25.587Z,26.00
2022-08-22T16:45:35.105Z,25.90
2022-08-22T16:48:37.510Z,25.90
2022-08-22T16:51:19.779Z,26.00
2022-08-22T16:54:11.916Z,26.00
2022-08-22T16:56:51.677Z,25.90
2022-08-22T16:59:25.382Z,25.80
2022-08-22T17:02:10.348Z,25.60
2022-08-22T17:04:43.826Z,25.50
2022-08-22T17:07:29.012Z,25.60
2022-08-22T17:10:12.532Z,25.60
2022-08-22T17:12:51.367Z,25.50
2022-08-22T17:15:39.509Z,25.60
2022-08-22T17:18:21.426Z,25.50
2022-08-22T17:21:06.384Z,25.50
2022-08-22T17:24:01.283Z,25.50
2022-08-22T17:26:50.888Z,25.40
2022-08-22T17:29:26.509Z,25.30
2022-08-22T17:32:03.558Z,25.30
2022-08-22T17:35:06.480Z,25.40
2022-08-22T17:37:57.397Z,25.30
2022-08-22T17:40:33.325Z,25.30
2022-08-22T17:43:06.611Z,25.10
2022-08-22T17:46:13.477Z,25.00
2022-08-22T17:48:57.796Z,25.00
2022-08-22T17:51:44.172Z,24.90
2022-08-22T17:54:29.842Z,24.80
2022-08-22T17:57:10.831Z,24.70
2022-08-22T18:00:05.229Z,24.80
2022-08-22T18:02:59.112Z,24.70
2022-08-22T18:05:33.283Z,24.70
2022-08-22T18:10:58.710Z,24.60
2022-08-22T18:13:51.882Z,24.60
2022-08-22T18:16:23.103Z,24.50
2022-08-22T18:18:59.383Z,24.50
2022-08-22T18:21:35.542Z,24.50
2022-08-22T18:24:17.748Z,24.50
2022-08-22T18:27:02.007Z,24.50
2022-08-22T18:29:46.545Z,24.50
2022-08-22T18:32:23.042Z,24.40
2022-08-22T18:34:57.647Z,24.40
2022-08-22T18:37:43.865Z,24.40
2022-08-22T18:40:36.699Z,24.30
2022-08-22T18:43:22.125Z,24.30
2022-08-22T18:45:59.146Z,24.30
2022-08-22T18:48:59.256Z,24.30
2022-08-22T18:51:24.766Z,24.20
2022-08-22T18:54:08.535Z,24.20
2022-08-22T18:56:58.507Z,24.20
2022-08-22T18:59:41.248Z,24.10
2022-08-22T19:02:37.357Z,24.00
2022-08-22T19:05:25.609Z,24.10
2022-08-22T19:08:05.044Z,24.00
2022-08-22T19:10:41.200Z,24.00
2022-08-22T19:13:31.179Z,24.00
2022-08-22T19:16:24.035Z,24.00
2022-08-22T19:18:55.097Z,23.90
2022-08-22T19:21:50.000Z,23.80
2022-08-22T19:24:23.372Z,23.80
2022-08-22T19:27:15.335Z,23.90
2022-08-22T19:29:48.701Z,23.80
2022-08-22T19:32:47.389Z,23.80
2022-08-22T19:35:29.695Z,23.80
2022-08-22T19:38:03.911Z,23.70
2022-08-22T19:40:54.111Z,23.70
2022-08-22T19:43:36.104Z,23.70
2022-08-22T19:46:09.065Z,23.70
2022-08-22T19:48:53.261Z,23.60
2022-08-22T19:51:29.316Z,23.60
2022-08-22T19:54:05.870Z,23.50
2022-08-22T19:56:51.549Z,23.60
2022-08-22T19:59:51.138Z,23.50
2022-08-22T20:02:34.689Z,23.50
2022-08-22T20:05:33.593Z,23.50
2022-08-22T20:08:21.933Z,23.50
2022-08-22T20:11:06.017Z,23.40
2022-08-22T20:13:38.021Z,23.40
2022-08-22T20:16:19.934Z,23.40
2022-08-22T20:19:07.810Z,23.40
2022-08-22T20:21:43.329Z,23.40
2022-08-22T20:24:19.785Z,23.30
2022-08-22T20:27:13.349Z,23.20
2022-08-22T20:29:33.550Z,23.20
2022-08-22T20:32:06.738Z,23.10
2022-08-22T20:34:40.750Z,23.20
2022-08-22T20:37:45.400Z,23.20
2022-08-22T20:40:01.376Z,23.10
2022-08-22T20:42:37.113Z,23.20
2022-08-22T20:45:12.405Z,23.10
2022-08-22T20:47:46.460Z,23.00
2022-08-22T20:50:15.247Z,23.00
2022-08-22T20:52:51.833Z,23.00
2022-08-22T20:55:23.924Z,23.10
2022-08-22T20:58:03.174Z,23.00
2022-08-22T21:00:39.735Z,22.90
2022-08-22T21:03:16.284Z,22.90
2022-08-22T21:05:47.510Z,22.90
2022-08-22T21:08:23.161Z,22.90
2022-08-22T21:11:23.590Z,22.80
2022-08-22T21:13:56.027Z,22.90
2022-08-22T21:16:35.293Z,22.90
2022-08-22T21:19:05.719Z,22.90
2022-08-22T21:21:36.768Z,22.80
2022-08-22T21:24:10.485Z,22.70
2022-08-22T21:26:49.694Z,22.80
2022-08-22T21:29:23.989Z,22.80
2022-08-22T21:32:04.709Z,22.80
2022-08-22T21:34:34.918Z,22.80
2022-08-22T21:37:11.376Z,22.80
2022-08-22T21:39:46.643Z,22.80
2022-08-22T21:42:37.617Z,22.80
2022-08-22T21:45:16.850Z,22.80
2022-08-22T21:47:47.294Z,22.70
2022-08-22T21:50:25.921Z,22.80
2022-08-22T21:53:01.030Z,22.70
2022-08-22T21:55:34.537Z,22.80
2022-08-22T21:58:36.288Z,22.80
2022-08-22T22:01:01.800Z,22.80
2022-08-22T22:03:37.484Z,22.80
2022-08-22T22:06:09.122Z,22.80
2022-08-22T22:08:40.274Z,22.70
2022-08-22T22:11:14.498Z,22.60
2022-08-22T22:13:44.709Z,22.50
2022-08-22T22:16:18.214Z,22.50
2022-08-22T22:18:49.150Z,22.50
2022-08-22T22:21:23.746Z,22.50
2022-08-22T22:23:58.411Z,22.50
2022-08-22T22:26:27.702Z,22.50
2022-08-22T22:28:59.943Z,22.50
2022-08-22T22:31:30.071Z,22.50
2022-08-22T22:34:02.448Z,22.30
2022-08-22T22:36:32.858Z,22.40
2022-08-22T22:39:04.836Z,22.40
2022-08-22T22:41:36.606Z,22.40
2022-08-22T22:44:06.086Z,22.30
2022-08-22T22:46:37.051Z,22.20
2022-08-22T22:49:07.325Z,22.20
2022-08-22T22:51:38.311Z,22.10
2022-08-22T22:54:08.634Z,22.10
2022-08-22T22:56:40.066Z,22.10
2022-08-22T22:59:13.472Z,22.10
2022-08-22T23:02:01.859Z,22.20
2022-08-22T23:04:34.032Z,22.10
2022-08-22T23:07:05.969Z,22.20
2022-08-22T23:09:38.774Z,22.20
2022-08-22T23:12:10.227Z,22.20
2022-08-22T23:14:41.011Z,22.20
2022-08-22T23:17:12.477Z,22.30
2022-08-22T23:19:44.254Z,22.20
2022-08-22T23:22:15.866Z,22.10
2022-08-22T23:24:47.123Z,22.10
2022-08-22T23:27:17.348Z,22.20
2022-08-22T23:29:48.081Z,22.20
2022-08-22T23:32:17.895Z,22.20
2022-08-22T23:34:49.946Z,22.30
2022-08-22T23:37:23.148Z,22.20
2022-08-22T23:39:53.582Z,22.30
2022-08-22T23:42:23.994Z,22.30
2022-08-22T23:44:54.053Z,22.20
2022-08-22T23:47:24.037Z,22.10
2022-08-22T23:49:54.178Z,22.10
2022-08-22T23:52:24.175Z,22.10
2022-08-22T23:54:55.873Z,22.00
2022-08-22T23:57:29.367Z,22.00
2022-08-22T23:59:59.942Z,22.00
